Relevés horaires Beauvechain (Belgique)


Relevés horaires à Beauvechain - Lundi 15 Juin 2020
Heure UTC1 Température [°C] Vent [km/h] Hum. [%] Pres.4 [hPa] Visi. [Km] Nébu. [octa] Préc.5 [mm] Cond.
2m. Res. Ros. Dir.2 Vit. Moy. Raf.3
23:00 18.2 18.2 12.5 SSO 5.6 -- 5.6 69 1016.7(0.2/3h) 20 -- -- --
22:00 19.0 19.0 12.2 SO 3.7 -- 5.6 65 1016.7(0.5/3h) 20 -- -- --
21:00 20.0 20.0 12.6 SO 3.7 -- 11.1 62 1016.7(0.7/3h) 20 -- -- --
20:00 21.0 21.0 12.1 OSO 3.7 -- 7.4 57 1016.5(0.5/3h) 20 -- -- --
19:00 22.0 22.0 11.7 OSO 5.6 -- 11.1 52 1016.1(0.2/3h) 20 -- -- --
18:00 22.5 22.5 11.9 OSO 7.4 -- 13.0 51 1015.8(0.0/3h) 20 -- -- --
17:00 23.2 23.2 11.1 O 5.6 -- 13.0 46 1015.7(-0.4/3h) 20 -- -- --
16:00 23.9 23.9 11.7 OSO 5.6 -- 13.0 46 1015.7(-0.5/3h) 20 -- -- --
14:00 22.6 22.6 12.0 SO 7.4 -- 13.0 51 1016.3(-0.5/3h) 20 5/8 -- --
13:00 22.6 22.6 12.0 SO 7.4 -- 13.0 51 1016.3(-0.5/3h) 20 5/8 -- --
12:00 23.0 23.0 12.2 OSO 7.4 -- 11.1 51 1016.7(-0.2/3h) 20 5/8 -- --
11:00 21.2 21.2 12.2 SO 5.6 -- 9.3 56 1017(0.0/3h) 20 5/8 -- --
10:00 21.2 21.2 12.3 SO 5.6 -- 9.3 57 1017(0.0/3h) 20 4/8 -- --
09:00 20.9 20.9 12.6 OSO 5.6 -- 9.3 59 1017.1(0.4/3h) 20 3/8 -- --
08:00 20.1 20.1 12.8 SO 3.7 -- 7.4 63 1017.1(0.4/3h) 20 3/8 -- --
07:00 18.3 18.3 13.3 SO 5.6 -- 9.3 73 1017(0.4/3h) 10 3/8 -- --
06:00 16.7 16.7 12.6 SO 5.6 -- 7.4 77 1016.8(0.3/3h) 10 4/8 0.2/12h
--
05:00 15.6 15.6 13.1 NNO 0.0 -- 3.7 85 1016.8(0.2/3h) 8 4/8 -- --
04:00 15.2 15.2 14.1 NNO 1.9 -- 3.7 93 1016.7(-0.1/3h) 7 -- -- --
03:00 15.6 15.6 13.9 NNO 1.9 -- 3.7 90 1016.6(-0.2/3h) 13 -- -- NA
02:00 15.8 15.8 14.1 NNO 1.9 -- 3.7 90 1016.6(-0.2/3h) 13 -- -- --
01:00 16.2 16.2 14.0 NNO 1.9 -- 3.7 87 1016.7(0.0/3h) 19 -- -- NA
00:00 16.6 16.6 14.4 NNO 1.9 -- 7.4 87 1016.7(0.2/3h) 20 -- 0.1/6h
Il y a une bruine modérée et intermittente à la station au moment de l'observation

1 Coordinated Universal Time. Actuellement il est 20:00 locale et 18:00 UTC.

2 Le vent souffle depuis la direction indiquée vers la direction oposée.

3 Les rafales max. sont disponible 40 min après l'heure du relevé.

4 Pour les stations d'altitude (plus de 600m) le géopotentiel du niveau le plus proche de la pression obligatoire est indiqué.

5 Les stations disposant d'un diffuseur peuvent indiquer "trace". Cela signifie que des précipitations ont touchés le sol mais que la quantité est inférieure à 0.1 mm.

Récapitulatif de la journée
Température [°C] Vent [km/h] Ensoleillement4 [h] Precipitations totale5 [mm] Pression [Hpa]
Min1 Max.2 Moy.3 Max. Min Max.
15.0 24.6 0 13.0 0 h 0 min 0 1015.7 1017.1

1 Température minimale relevée entre 18:00 UTC la veille et 18:00 UTC le jour donné.

2 Température maximale relevée entre 06:00 UTC le jour donné et 06:00 UTC le lendemain.

3 Vent moyen de la journée basé sur les relevés horaires.

4 Ensoleillement en heures relevé entre 06:00 UTC la veille et 06:00 UTC le jour donné.

5 Précipitations totales tombées entre 06:00 UTC la jour donné et 06:00 UTC le lendemain.

Graphiques horaires